sensor_id;sensor_type;location;lat;lon;timestamp;P1;durP1;ratioP1;P2;durP2;ratioP2
7571;SDS011;3827;49.928;8.548;2024-03-08T00:01:44;15.88;;;13.77;;
7571;SDS011;3827;49.928;8.548;2024-03-08T00:04:11;15.20;;;13.60;;
7571;SDS011;3827;49.928;8.548;2024-03-08T00:06:38;15.30;;;13.70;;
7571;SDS011;3827;49.928;8.548;2024-03-08T00:09:07;16.40;;;14.43;;
7571;SDS011;3827;49.928;8.548;2024-03-08T00:11:33;15.48;;;13.88;;
7571;SDS011;3827;49.928;8.548;2024-03-08T00:14:00;15.93;;;14.30;;
7571;SDS011;3827;49.928;8.548;2024-03-08T00:16:27;14.88;;;13.30;;
7571;SDS011;3827;49.928;8.548;2024-03-08T00:18:54;15.55;;;13.95;;
7571;SDS011;3827;49.928;8.548;2024-03-08T00:21:20;15.45;;;13.85;;
7571;SDS011;3827;49.928;8.548;2024-03-08T00:23:47;16.07;;;14.37;;
7571;SDS011;3827;49.928;8.548;2024-03-08T00:26:15;15.50;;;13.90;;
7571;SDS011;3827;49.928;8.548;2024-03-08T00:28:42;15.70;;;14.10;;
7571;SDS011;3827;49.928;8.548;2024-03-08T00:31:08;15.60;;;13.90;;
7571;SDS011;3827;49.928;8.548;2024-03-08T00:33:35;15.60;;;14.00;;
7571;SDS011;3827;49.928;8.548;2024-03-08T00:36:02;15.55;;;13.55;;
7571;SDS011;3827;49.928;8.548;2024-03-08T00:38:29;15.90;;;14.30;;
7571;SDS011;3827;49.928;8.548;2024-03-08T00:40:56;16.58;;;14.15;;
7571;SDS011;3827;49.928;8.548;2024-03-08T00:43:24;15.88;;;14.20;;
7571;SDS011;3827;49.928;8.548;2024-03-08T00:45:51;17.00;;;14.73;;
7571;SDS011;3827;49.928;8.548;2024-03-08T00:48:18;15.82;;;14.18;;
7571;SDS011;3827;49.928;8.548;2024-03-08T00:50:44;16.25;;;14.55;;
7571;SDS011;3827;49.928;8.548;2024-03-08T00:53:11;16.60;;;14.25;;
7571;SDS011;3827;49.928;8.548;2024-03-08T00:55:38;15.88;;;14.20;;
7571;SDS011;3827;49.928;8.548;2024-03-08T00:58:05;16.75;;;14.95;;
7571;SDS011;3827;49.928;8.548;2024-03-08T01:00:33;16.00;;;14.18;;
7571;SDS011;3827;49.928;8.548;2024-03-08T01:02:59;15.88;;;14.18;;
7571;SDS011;3827;49.928;8.548;2024-03-08T01:05:28;16.10;;;14.18;;
7571;SDS011;3827;49.928;8.548;2024-03-08T01:07:55;16.00;;;14.30;;
7571;SDS011;3827;49.928;8.548;2024-03-08T01:10:21;16.42;;;14.70;;
7571;SDS011;3827;49.928;8.548;2024-03-08T01:12:48;16.25;;;14.57;;
7571;SDS011;3827;49.928;8.548;2024-03-08T01:15:15;16.67;;;14.80;;
7571;SDS011;3827;49.928;8.548;2024-03-08T01:17:44;15.75;;;14.13;;
7571;SDS011;3827;49.928;8.548;2024-03-08T01:20:11;16.52;;;14.75;;
7571;SDS011;3827;49.928;8.548;2024-03-08T01:22:38;16.42;;;14.75;;
7571;SDS011;3827;49.928;8.548;2024-03-08T01:25:05;16.38;;;14.68;;
7571;SDS011;3827;49.928;8.548;2024-03-08T01:27:33;16.27;;;14.55;;
7571;SDS011;3827;49.928;8.548;2024-03-08T01:30:01;15.73;;;13.97;;
7571;SDS011;3827;49.928;8.548;2024-03-08T01:32:29;17.33;;;15.52;;
7571;SDS011;3827;49.928;8.548;2024-03-08T01:34:57;17.90;;;14.65;;
7571;SDS011;3827;49.928;8.548;2024-03-08T01:37:24;17.10;;;15.13;;
7571;SDS011;3827;49.928;8.548;2024-03-08T01:39:50;17.98;;;14.90;;
7571;SDS011;3827;49.928;8.548;2024-03-08T01:42:17;16.58;;;14.88;;
7571;SDS011;3827;49.928;8.548;2024-03-08T01:44:44;17.27;;;15.48;;
7571;SDS011;3827;49.928;8.548;2024-03-08T01:47:10;16.90;;;14.97;;
7571;SDS011;3827;49.928;8.548;2024-03-08T01:49:37;16.48;;;14.73;;
7571;SDS011;3827;49.928;8.548;2024-03-08T01:52:06;15.52;;;14.02;;
7571;SDS011;3827;49.928;8.548;2024-03-08T01:54:33;15.52;;;13.90;;
7571;SDS011;3827;49.928;8.548;2024-03-08T01:57:01;15.52;;;13.80;;
7571;SDS011;3827;49.928;8.548;2024-03-08T01:59:28;17.13;;;15.32;;
7571;SDS011;3827;49.928;8.548;2024-03-08T02:01:55;16.58;;;14.85;;
7571;SDS011;3827;49.928;8.548;2024-03-08T02:04:26;15.90;;;14.20;;
7571;SDS011;3827;49.928;8.548;2024-03-08T02:06:55;15.88;;;14.27;;
7571;SDS011;3827;49.928;8.548;2024-03-08T02:09:24;16.00;;;14.40;;
7571;SDS011;3827;49.928;8.548;2024-03-08T02:11:51;16.88;;;14.63;;
7571;SDS011;3827;49.928;8.548;2024-03-08T02:14:19;16.48;;;14.70;;
7571;SDS011;3827;49.928;8.548;2024-03-08T02:16:46;16.65;;;14.75;;
7571;SDS011;3827;49.928;8.548;2024-03-08T02:19:13;16.50;;;14.70;;
7571;SDS011;3827;49.928;8.548;2024-03-08T02:21:41;16.70;;;15.00;;
7571;SDS011;3827;49.928;8.548;2024-03-08T02:24:08;17.15;;;15.13;;
7571;SDS011;3827;49.928;8.548;2024-03-08T02:26:35;16.73;;;14.93;;
7571;SDS011;3827;49.928;8.548;2024-03-08T02:29:02;16.90;;;15.13;;
7571;SDS011;3827;49.928;8.548;2024-03-08T02:31:30;17.50;;;15.50;;
7571;SDS011;3827;49.928;8.548;2024-03-08T02:33:56;17.35;;;15.25;;
7571;SDS011;3827;49.928;8.548;2024-03-08T02:36:24;19.33;;;16.48;;
7571;SDS011;3827;49.928;8.548;2024-03-08T02:38:52;17.45;;;15.65;;
7571;SDS011;3827;49.928;8.548;2024-03-08T02:41:20;19.58;;;16.30;;
7571;SDS011;3827;49.928;8.548;2024-03-08T02:43:47;18.30;;;16.15;;
7571;SDS011;3827;49.928;8.548;2024-03-08T02:46:15;18.48;;;16.25;;
7571;SDS011;3827;49.928;8.548;2024-03-08T02:48:42;17.90;;;16.00;;
7571;SDS011;3827;49.928;8.548;2024-03-08T02:51:08;18.58;;;16.50;;
7571;SDS011;3827;49.928;8.548;2024-03-08T02:53:35;18.58;;;16.58;;
7571;SDS011;3827;49.928;8.548;2024-03-08T02:56:04;18.55;;;15.82;;
7571;SDS011;3827;49.928;8.548;2024-03-08T02:58:33;17.15;;;15.40;;
7571;SDS011;3827;49.928;8.548;2024-03-08T03:01:00;19.42;;;16.02;;
7571;SDS011;3827;49.928;8.548;2024-03-08T03:03:27;19.08;;;15.98;;
7571;SDS011;3827;49.928;8.548;2024-03-08T03:05:54;18.05;;;16.15;;
7571;SDS011;3827;49.928;8.548;2024-03-08T03:08:21;18.27;;;16.37;;
7571;SDS011;3827;49.928;8.548;2024-03-08T03:10:48;18.42;;;16.42;;
7571;SDS011;3827;49.928;8.548;2024-03-08T03:13:17;17.75;;;15.88;;
7571;SDS011;3827;49.928;8.548;2024-03-08T03:15:45;19.02;;;16.70;;
7571;SDS011;3827;49.928;8.548;2024-03-08T03:18:12;18.25;;;16.33;;
7571;SDS011;3827;49.928;8.548;2024-03-08T03:20:40;18.60;;;16.35;;
7571;SDS011;3827;49.928;8.548;2024-03-08T03:23:07;18.85;;;15.88;;
7571;SDS011;3827;49.928;8.548;2024-03-08T03:25:34;18.77;;;15.90;;
7571;SDS011;3827;49.928;8.548;2024-03-08T03:28:03;18.35;;;15.68;;
7571;SDS011;3827;49.928;8.548;2024-03-08T03:30:33;19.30;;;16.17;;
7571;SDS011;3827;49.928;8.548;2024-03-08T03:33:00;18.00;;;16.10;;
7571;SDS011;3827;49.928;8.548;2024-03-08T03:35:31;18.38;;;15.98;;
7571;SDS011;3827;49.928;8.548;2024-03-08T03:37:59;18.02;;;16.08;;
7571;SDS011;3827;49.928;8.548;2024-03-08T03:40:31;17.60;;;15.70;;
7571;SDS011;3827;49.928;8.548;2024-03-08T03:42:58;19.17;;;16.20;;
7571;SDS011;3827;49.928;8.548;2024-03-08T03:45:25;17.95;;;16.08;;
7571;SDS011;3827;49.928;8.548;2024-03-08T03:47:53;18.23;;;16.33;;
7571;SDS011;3827;49.928;8.548;2024-03-08T03:50:20;18.93;;;16.60;;
7571;SDS011;3827;49.928;8.548;2024-03-08T03:52:48;18.65;;;16.65;;
7571;SDS011;3827;49.928;8.548;2024-03-08T03:55:16;18.98;;;16.65;;
7571;SDS011;3827;49.928;8.548;2024-03-08T03:57:42;19.75;;;17.65;;
7571;SDS011;3827;49.928;8.548;2024-03-08T04:00:11;17.88;;;15.98;;
7571;SDS011;3827;49.928;8.548;2024-03-08T04:02:38;20.20;;;16.70;;
7571;SDS011;3827;49.928;8.548;2024-03-08T04:05:08;18.75;;;16.75;;
7571;SDS011;3827;49.928;8.548;2024-03-08T04:07:35;18.42;;;16.50;;
7571;SDS011;3827;49.928;8.548;2024-03-08T04:10:03;19.90;;;17.58;;
7571;SDS011;3827;49.928;8.548;2024-03-08T04:12:31;18.90;;;16.83;;
7571;SDS011;3827;49.928;8.548;2024-03-08T04:14:58;19.40;;;16.53;;
7571;SDS011;3827;49.928;8.548;2024-03-08T04:17:25;19.60;;;17.20;;
7571;SDS011;3827;49.928;8.548;2024-03-08T04:19:52;19.60;;;16.50;;
7571;SDS011;3827;49.928;8.548;2024-03-08T04:22:20;18.80;;;16.83;;
7571;SDS011;3827;49.928;8.548;2024-03-08T04:24:47;20.52;;;17.63;;
7571;SDS011;3827;49.928;8.548;2024-03-08T04:27:14;19.20;;;17.17;;
7571;SDS011;3827;49.928;8.548;2024-03-08T04:29:41;19.80;;;16.92;;
7571;SDS011;3827;49.928;8.548;2024-03-08T04:32:08;20.80;;;17.23;;
7571;SDS011;3827;49.928;8.548;2024-03-08T04:34:36;20.40;;;17.00;;
7571;SDS011;3827;49.928;8.548;2024-03-08T04:37:03;20.30;;;17.25;;
7571;SDS011;3827;49.928;8.548;2024-03-08T04:39:31;19.90;;;16.83;;
7571;SDS011;3827;49.928;8.548;2024-03-08T04:41:59;20.30;;;17.60;;
7571;SDS011;3827;49.928;8.548;2024-03-08T04:44:29;19.73;;;16.70;;
7571;SDS011;3827;49.928;8.548;2024-03-08T04:46:56;22.95;;;18.58;;
7571;SDS011;3827;49.928;8.548;2024-03-08T04:49:23;21.70;;;18.52;;
7571;SDS011;3827;49.928;8.548;2024-03-08T04:51:50;20.25;;;17.92;;
7571;SDS011;3827;49.928;8.548;2024-03-08T04:54:16;21.13;;;18.30;;
7571;SDS011;3827;49.928;8.548;2024-03-08T04:56:45;20.67;;;18.20;;
7571;SDS011;3827;49.928;8.548;2024-03-08T04:59:12;22.42;;;18.33;;
7571;SDS011;3827;49.928;8.548;2024-03-08T05:01:38;20.00;;;17.55;;
7571;SDS011;3827;49.928;8.548;2024-03-08T05:04:05;21.58;;;17.45;;
7571;SDS011;3827;49.928;8.548;2024-03-08T05:06:32;19.70;;;17.60;;
7571;SDS011;3827;49.928;8.548;2024-03-08T05:08:59;19.85;;;17.67;;
7571;SDS011;3827;49.928;8.548;2024-03-08T05:11:25;58.05;;;41.38;;
7571;SDS011;3827;49.928;8.548;2024-03-08T05:13:53;34.97;;;26.58;;
7571;SDS011;3827;49.928;8.548;2024-03-08T05:16:20;23.58;;;20.30;;
7571;SDS011;3827;49.928;8.548;2024-03-08T05:18:49;22.88;;;19.42;;
7571;SDS011;3827;49.928;8.548;2024-03-08T05:21:16;21.80;;;18.77;;
7571;SDS011;3827;49.928;8.548;2024-03-08T05:23:45;21.00;;;18.75;;
7571;SDS011;3827;49.928;8.548;2024-03-08T05:26:12;19.90;;;17.58;;
7571;SDS011;3827;49.928;8.548;2024-03-08T05:28:39;21.40;;;17.95;;
7571;SDS011;3827;49.928;8.548;2024-03-08T05:31:07;21.73;;;18.02;;
7571;SDS011;3827;49.928;8.548;2024-03-08T05:33:34;23.02;;;19.00;;
7571;SDS011;3827;49.928;8.548;2024-03-08T05:36:00;22.60;;;19.38;;
7571;SDS011;3827;49.928;8.548;2024-03-08T05:38:28;22.58;;;19.25;;
7571;SDS011;3827;49.928;8.548;2024-03-08T05:40:54;23.05;;;20.52;;
7571;SDS011;3827;49.928;8.548;2024-03-08T05:43:21;23.90;;;20.50;;
7571;SDS011;3827;49.928;8.548;2024-03-08T05:45:48;25.27;;;22.37;;
7571;SDS011;3827;49.928;8.548;2024-03-08T05:48:16;26.17;;;21.75;;
7571;SDS011;3827;49.928;8.548;2024-03-08T05:50:43;23.03;;;20.53;;
7571;SDS011;3827;49.928;8.548;2024-03-08T05:53:10;24.98;;;20.33;;
7571;SDS011;3827;49.928;8.548;2024-03-08T05:55:38;22.08;;;19.55;;
7571;SDS011;3827;49.928;8.548;2024-03-08T05:58:05;23.38;;;19.63;;
7571;SDS011;3827;49.928;8.548;2024-03-08T06:00:32;22.35;;;19.95;;
7571;SDS011;3827;49.928;8.548;2024-03-08T06:03:01;21.55;;;19.25;;
7571;SDS011;3827;49.928;8.548;2024-03-08T06:05:29;21.90;;;18.80;;
7571;SDS011;3827;49.928;8.548;2024-03-08T06:07:56;22.50;;;19.55;;
7571;SDS011;3827;49.928;8.548;2024-03-08T06:10:22;22.10;;;19.42;;
7571;SDS011;3827;49.928;8.548;2024-03-08T06:12:49;24.08;;;21.02;;
7571;SDS011;3827;49.928;8.548;2024-03-08T06:15:16;22.23;;;19.27;;
7571;SDS011;3827;49.928;8.548;2024-03-08T06:17:45;22.80;;;19.80;;
7571;SDS011;3827;49.928;8.548;2024-03-08T06:20:12;23.02;;;20.13;;
7571;SDS011;3827;49.928;8.548;2024-03-08T06:22:40;22.02;;;19.63;;
7571;SDS011;3827;49.928;8.548;2024-03-08T06:25:07;22.90;;;20.45;;
7571;SDS011;3827;49.928;8.548;2024-03-08T06:27:35;21.17;;;18.88;;
7571;SDS011;3827;49.928;8.548;2024-03-08T06:30:02;22.73;;;19.58;;
7571;SDS011;3827;49.928;8.548;2024-03-08T06:32:29;23.07;;;19.63;;
7571;SDS011;3827;49.928;8.548;2024-03-08T06:34:58;22.50;;;19.10;;
7571;SDS011;3827;49.928;8.548;2024-03-08T06:37:24;22.73;;;19.95;;
7571;SDS011;3827;49.928;8.548;2024-03-08T06:39:52;22.90;;;20.02;;
7571;SDS011;3827;49.928;8.548;2024-03-08T06:42:20;23.95;;;20.60;;
7571;SDS011;3827;49.928;8.548;2024-03-08T06:44:47;22.42;;;19.65;;
7571;SDS011;3827;49.928;8.548;2024-03-08T06:47:14;24.67;;;20.73;;
7571;SDS011;3827;49.928;8.548;2024-03-08T06:49:41;23.77;;;19.83;;
7571;SDS011;3827;49.928;8.548;2024-03-08T06:52:08;23.63;;;19.83;;
7571;SDS011;3827;49.928;8.548;2024-03-08T06:54:35;22.02;;;19.60;;
7571;SDS011;3827;49.928;8.548;2024-03-08T06:57:03;23.27;;;19.50;;
7571;SDS011;3827;49.928;8.548;2024-03-08T06:59:30;24.50;;;21.20;;
7571;SDS011;3827;49.928;8.548;2024-03-08T07:01:57;23.52;;;19.95;;
7571;SDS011;3827;49.928;8.548;2024-03-08T07:04:24;24.20;;;21.27;;
7571;SDS011;3827;49.928;8.548;2024-03-08T07:06:54;22.55;;;20.15;;
7571;SDS011;3827;49.928;8.548;2024-03-08T07:09:20;22.88;;;20.42;;
7571;SDS011;3827;49.928;8.548;2024-03-08T07:11:47;23.23;;;20.52;;
7571;SDS011;3827;49.928;8.548;2024-03-08T07:14:20;24.13;;;20.40;;
7571;SDS011;3827;49.928;8.548;2024-03-08T07:16:48;24.30;;;20.93;;
7571;SDS011;3827;49.928;8.548;2024-03-08T07:19:15;23.05;;;20.27;;
7571;SDS011;3827;49.928;8.548;2024-03-08T07:21:42;24.70;;;20.85;;
7571;SDS011;3827;49.928;8.548;2024-03-08T07:24:09;22.50;;;19.80;;
7571;SDS011;3827;49.928;8.548;2024-03-08T07:26:52;23.02;;;19.55;;
7571;SDS011;3827;49.928;8.548;2024-03-08T07:29:21;21.60;;;19.20;;
7571;SDS011;3827;49.928;8.548;2024-03-08T07:31:48;23.10;;;20.60;;
7571;SDS011;3827;49.928;8.548;2024-03-08T07:34:26;22.90;;;19.73;;
7571;SDS011;3827;49.928;8.548;2024-03-08T07:36:52;23.10;;;19.43;;
7571;SDS011;3827;49.928;8.548;2024-03-08T07:39:21;21.05;;;18.75;;
7571;SDS011;3827;49.928;8.548;2024-03-08T07:41:48;21.67;;;18.97;;
7571;SDS011;3827;49.928;8.548;2024-03-08T07:44:17;22.23;;;18.77;;
7571;SDS011;3827;49.928;8.548;2024-03-08T07:46:45;23.23;;;19.13;;
7571;SDS011;3827;49.928;8.548;2024-03-08T07:49:12;23.60;;;18.92;;
7571;SDS011;3827;49.928;8.548;2024-03-08T07:51:41;21.42;;;18.77;;
7571;SDS011;3827;49.928;8.548;2024-03-08T07:54:08;23.10;;;19.65;;
7571;SDS011;3827;49.928;8.548;2024-03-08T07:56:34;21.33;;;18.48;;
7571;SDS011;3827;49.928;8.548;2024-03-08T07:59:02;21.23;;;18.00;;
7571;SDS011;3827;49.928;8.548;2024-03-08T08:01:29;19.92;;;17.83;;
7571;SDS011;3827;49.928;8.548;2024-03-08T08:03:58;21.02;;;17.80;;
7571;SDS011;3827;49.928;8.548;2024-03-08T08:06:26;19.02;;;17.02;;
7571;SDS011;3827;49.928;8.548;2024-03-08T08:08:53;19.50;;;16.90;;
7571;SDS011;3827;49.928;8.548;2024-03-08T08:11:20;20.08;;;17.45;;
7571;SDS011;3827;49.928;8.548;2024-03-08T08:13:47;19.50;;;17.00;;
7571;SDS011;3827;49.928;8.548;2024-03-08T08:16:14;19.10;;;16.20;;
7571;SDS011;3827;49.928;8.548;2024-03-08T08:18:40;19.02;;;17.02;;
7571;SDS011;3827;49.928;8.548;2024-03-08T08:21:09;18.52;;;16.60;;
7571;SDS011;3827;49.928;8.548;2024-03-08T08:23:35;18.35;;;16.35;;
7571;SDS011;3827;49.928;8.548;2024-03-08T08:26:03;18.17;;;15.98;;
7571;SDS011;3827;49.928;8.548;2024-03-08T08:28:29;17.92;;;16.02;;
7571;SDS011;3827;49.928;8.548;2024-03-08T08:30:56;18.67;;;16.67;;
7571;SDS011;3827;49.928;8.548;2024-03-08T08:33:24;18.42;;;16.23;;
7571;SDS011;3827;49.928;8.548;2024-03-08T08:35:51;17.30;;;15.40;;
7571;SDS011;3827;49.928;8.548;2024-03-08T08:38:20;18.23;;;16.10;;
7571;SDS011;3827;49.928;8.548;2024-03-08T08:40:48;18.88;;;16.77;;
7571;SDS011;3827;49.928;8.548;2024-03-08T08:43:15;17.45;;;15.60;;
7571;SDS011;3827;49.928;8.548;2024-03-08T08:45:41;18.00;;;16.02;;
7571;SDS011;3827;49.928;8.548;2024-03-08T08:48:08;18.13;;;16.23;;
7571;SDS011;3827;49.928;8.548;2024-03-08T08:50:35;17.13;;;15.33;;
7571;SDS011;3827;49.928;8.548;2024-03-08T08:53:03;16.88;;;15.07;;
7571;SDS011;3827;49.928;8.548;2024-03-08T08:55:33;18.85;;;15.80;;
7571;SDS011;3827;49.928;8.548;2024-03-08T08:58:00;17.90;;;15.63;;
7571;SDS011;3827;49.928;8.548;2024-03-08T09:00:28;16.90;;;15.10;;
7571;SDS011;3827;49.928;8.548;2024-03-08T09:02:56;18.65;;;15.80;;
7571;SDS011;3827;49.928;8.548;2024-03-08T09:05:23;20.17;;;14.90;;
7571;SDS011;3827;49.928;8.548;2024-03-08T09:07:51;16.70;;;14.88;;
7571;SDS011;3827;49.928;8.548;2024-03-08T09:10:19;15.88;;;14.25;;
7571;SDS011;3827;49.928;8.548;2024-03-08T09:12:47;15.95;;;14.23;;
7571;SDS011;3827;49.928;8.548;2024-03-08T09:15:14;16.23;;;14.45;;
7571;SDS011;3827;49.928;8.548;2024-03-08T09:17:42;15.93;;;14.23;;
7571;SDS011;3827;49.928;8.548;2024-03-08T09:20:10;15.02;;;13.27;;
7571;SDS011;3827;49.928;8.548;2024-03-08T09:22:39;15.25;;;13.32;;
7571;SDS011;3827;49.928;8.548;2024-03-08T09:25:06;17.50;;;13.95;;
7571;SDS011;3827;49.928;8.548;2024-03-08T09:27:34;15.27;;;13.52;;
7571;SDS011;3827;49.928;8.548;2024-03-08T09:30:03;15.50;;;13.63;;
7571;SDS011;3827;49.928;8.548;2024-03-08T09:32:31;14.20;;;12.65;;
7571;SDS011;3827;49.928;8.548;2024-03-08T09:34:58;15.13;;;13.02;;
7571;SDS011;3827;49.928;8.548;2024-03-08T09:37:26;14.75;;;13.10;;
7571;SDS011;3827;49.928;8.548;2024-03-08T09:39:52;14.52;;;13.00;;
7571;SDS011;3827;49.928;8.548;2024-03-08T09:42:19;14.57;;;12.77;;
7571;SDS011;3827;49.928;8.548;2024-03-08T09:44:46;14.85;;;12.95;;
7571;SDS011;3827;49.928;8.548;2024-03-08T09:47:14;15.13;;;12.93;;
7571;SDS011;3827;49.928;8.548;2024-03-08T09:49:41;13.60;;;12.18;;
7571;SDS011;3827;49.928;8.548;2024-03-08T09:52:09;13.45;;;12.00;;
7571;SDS011;3827;49.928;8.548;2024-03-08T09:54:37;13.88;;;12.43;;
7571;SDS011;3827;49.928;8.548;2024-03-08T09:57:04;15.07;;;12.98;;
7571;SDS011;3827;49.928;8.548;2024-03-08T09:59:34;15.13;;;13.35;;
7571;SDS011;3827;49.928;8.548;2024-03-08T10:02:15;14.90;;;13.35;;
7571;SDS011;3827;49.928;8.548;2024-03-08T10:04:42;13.77;;;12.38;;
7571;SDS011;3827;49.928;8.548;2024-03-08T10:07:11;14.03;;;12.30;;
7571;SDS011;3827;49.928;8.548;2024-03-08T10:09:38;14.35;;;12.70;;
7571;SDS011;3827;49.928;8.548;2024-03-08T10:12:06;13.50;;;12.10;;
7571;SDS011;3827;49.928;8.548;2024-03-08T10:14:38;13.60;;;12.20;;
7571;SDS011;3827;49.928;8.548;2024-03-08T10:17:06;13.80;;;12.38;;
7571;SDS011;3827;49.928;8.548;2024-03-08T10:19:35;15.35;;;12.88;;
7571;SDS011;3827;49.928;8.548;2024-03-08T10:22:02;15.70;;;12.60;;
7571;SDS011;3827;49.928;8.548;2024-03-08T10:24:29;14.32;;;12.82;;
7571;SDS011;3827;49.928;8.548;2024-03-08T10:26:58;13.93;;;12.52;;
7571;SDS011;3827;49.928;8.548;2024-03-08T10:29:26;14.70;;;13.00;;
7571;SDS011;3827;49.928;8.548;2024-03-08T10:31:53;14.55;;;12.95;;
7571;SDS011;3827;49.928;8.548;2024-03-08T10:34:22;12.83;;;11.47;;
7571;SDS011;3827;49.928;8.548;2024-03-08T10:36:51;14.68;;;12.55;;
7571;SDS011;3827;49.928;8.548;2024-03-08T10:39:21;14.20;;;12.70;;
7571;SDS011;3827;49.928;8.548;2024-03-08T10:41:52;14.63;;;13.00;;
7571;SDS011;3827;49.928;8.548;2024-03-08T10:44:26;15.30;;;12.53;;
7571;SDS011;3827;49.928;8.548;2024-03-08T10:47:08;13.48;;;12.07;;
7571;SDS011;3827;49.928;8.548;2024-03-08T10:49:43;14.98;;;12.48;;
7571;SDS011;3827;49.928;8.548;2024-03-08T10:52:18;14.57;;;12.32;;
7571;SDS011;3827;49.928;8.548;2024-03-08T10:54:47;14.00;;;12.25;;
7571;SDS011;3827;49.928;8.548;2024-03-08T10:57:14;13.73;;;12.20;;
7571;SDS011;3827;49.928;8.548;2024-03-08T10:59:45;14.13;;;12.63;;
7571;SDS011;3827;49.928;8.548;2024-03-08T11:02:14;13.52;;;12.13;;
7571;SDS011;3827;49.928;8.548;2024-03-08T11:04:45;13.73;;;12.32;;
7571;SDS011;3827;49.928;8.548;2024-03-08T11:07:14;14.63;;;13.00;;
7571;SDS011;3827;49.928;8.548;2024-03-08T11:09:44;13.35;;;11.95;;
7571;SDS011;3827;49.928;8.548;2024-03-08T11:12:23;17.38;;;13.45;;
7571;SDS011;3827;49.928;8.548;2024-03-08T11:14:51;13.55;;;12.15;;
7571;SDS011;3827;49.928;8.548;2024-03-08T11:17:25;13.95;;;12.27;;
7571;SDS011;3827;49.928;8.548;2024-03-08T11:20:08;14.43;;;12.93;;
7571;SDS011;3827;49.928;8.548;2024-03-08T11:22:41;14.20;;;12.70;;
7571;SDS011;3827;49.928;8.548;2024-03-08T11:25:30;13.55;;;12.15;;
7571;SDS011;3827;49.928;8.548;2024-03-08T11:28:06;13.75;;;12.30;;
7571;SDS011;3827;49.928;8.548;2024-03-08T11:30:34;13.57;;;12.18;;
7571;SDS011;3827;49.928;8.548;2024-03-08T11:33:03;13.48;;;12.07;;
7571;SDS011;3827;49.928;8.548;2024-03-08T11:35:30;13.77;;;12.20;;
7571;SDS011;3827;49.928;8.548;2024-03-08T11:37:57;14.48;;;12.35;;
7571;SDS011;3827;49.928;8.548;2024-03-08T11:40:26;13.90;;;12.50;;
7571;SDS011;3827;49.928;8.548;2024-03-08T11:42:53;15.15;;;13.13;;
7571;SDS011;3827;49.928;8.548;2024-03-08T11:45:20;13.80;;;12.40;;
7571;SDS011;3827;49.928;8.548;2024-03-08T11:47:47;12.87;;;11.57;;
7571;SDS011;3827;49.928;8.548;2024-03-08T11:50:14;13.63;;;12.23;;
7571;SDS011;3827;49.928;8.548;2024-03-08T11:52:43;13.87;;;12.40;;
7571;SDS011;3827;49.928;8.548;2024-03-08T11:55:11;15.05;;;12.95;;
7571;SDS011;3827;49.928;8.548;2024-03-08T11:57:39;18.47;;;13.93;;
7571;SDS011;3827;49.928;8.548;2024-03-08T12:00:11;17.77;;;14.27;;
7571;SDS011;3827;49.928;8.548;2024-03-08T12:02:55;15.13;;;12.63;;
7571;SDS011;3827;49.928;8.548;2024-03-08T12:05:30;14.02;;;12.30;;
7571;SDS011;3827;49.928;8.548;2024-03-08T12:07:58;13.68;;;12.02;;
7571;SDS011;3827;49.928;8.548;2024-03-08T12:10:25;13.57;;;12.18;;
7571;SDS011;3827;49.928;8.548;2024-03-08T12:12:54;15.00;;;12.35;;
7571;SDS011;3827;49.928;8.548;2024-03-08T12:15:25;13.13;;;11.83;;
7571;SDS011;3827;49.928;8.548;2024-03-08T12:17:53;15.15;;;13.40;;
7571;SDS011;3827;49.928;8.548;2024-03-08T12:20:22;14.43;;;12.23;;
7571;SDS011;3827;49.928;8.548;2024-03-08T12:22:50;14.40;;;12.32;;
7571;SDS011;3827;49.928;8.548;2024-03-08T12:25:18;13.32;;;11.38;;
7571;SDS011;3827;49.928;8.548;2024-03-08T12:27:45;14.00;;;12.50;;
7571;SDS011;3827;49.928;8.548;2024-03-08T12:30:21;13.68;;;12.23;;
7571;SDS011;3827;49.928;8.548;2024-03-08T12:32:52;13.25;;;11.80;;
7571;SDS011;3827;49.928;8.548;2024-03-08T12:35:21;12.90;;;11.50;;
7571;SDS011;3827;49.928;8.548;2024-03-08T12:37:50;13.60;;;12.10;;
7571;SDS011;3827;49.928;8.548;2024-03-08T12:40:18;13.27;;;11.88;;
7571;SDS011;3827;49.928;8.548;2024-03-08T12:42:52;13.57;;;11.52;;
7571;SDS011;3827;49.928;8.548;2024-03-08T12:45:18;13.20;;;11.80;;
7571;SDS011;3827;49.928;8.548;2024-03-08T12:47:48;14.05;;;11.93;;
7571;SDS011;3827;49.928;8.548;2024-03-08T12:50:16;13.57;;;12.05;;
7571;SDS011;3827;49.928;8.548;2024-03-08T12:52:43;14.57;;;12.35;;
7571;SDS011;3827;49.928;8.548;2024-03-08T12:55:10;13.30;;;11.93;;
7571;SDS011;3827;49.928;8.548;2024-03-08T12:57:37;13.65;;;11.88;;
7571;SDS011;3827;49.928;8.548;2024-03-08T13:00:05;14.20;;;12.30;;
7571;SDS011;3827;49.928;8.548;2024-03-08T13:02:39;13.60;;;12.27;;
7571;SDS011;3827;49.928;8.548;2024-03-08T13:05:07;14.90;;;12.63;;
7571;SDS011;3827;49.928;8.548;2024-03-08T13:07:35;15.05;;;12.27;;
7571;SDS011;3827;49.928;8.548;2024-03-08T13:10:03;13.88;;;11.95;;
7571;SDS011;3827;49.928;8.548;2024-03-08T13:12:31;13.55;;;12.15;;
7571;SDS011;3827;49.928;8.548;2024-03-08T13:14:58;13.65;;;11.90;;
7571;SDS011;3827;49.928;8.548;2024-03-08T13:17:25;12.98;;;11.70;;
7571;SDS011;3827;49.928;8.548;2024-03-08T13:19:53;14.18;;;12.18;;
7571;SDS011;3827;49.928;8.548;2024-03-08T13:22:22;13.13;;;11.82;;
7571;SDS011;3827;49.928;8.548;2024-03-08T13:24:50;15.23;;;12.70;;
7571;SDS011;3827;49.928;8.548;2024-03-08T13:27:17;16.80;;;12.45;;
7571;SDS011;3827;49.928;8.548;2024-03-08T13:29:46;14.77;;;12.07;;
7571;SDS011;3827;49.928;8.548;2024-03-08T13:32:14;13.77;;;12.13;;
7571;SDS011;3827;49.928;8.548;2024-03-08T13:34:41;14.50;;;12.35;;
7571;SDS011;3827;49.928;8.548;2024-03-08T13:37:09;14.88;;;12.50;;
7571;SDS011;3827;49.928;8.548;2024-03-08T13:39:36;13.73;;;12.27;;
7571;SDS011;3827;49.928;8.548;2024-03-08T13:42:08;14.88;;;12.75;;
7571;SDS011;3827;49.928;8.548;2024-03-08T13:44:38;14.68;;;12.13;;
7571;SDS011;3827;49.928;8.548;2024-03-08T13:47:05;13.23;;;11.82;;
7571;SDS011;3827;49.928;8.548;2024-03-08T13:49:32;13.18;;;11.77;;
7571;SDS011;3827;49.928;8.548;2024-03-08T13:51:59;13.02;;;11.65;;
7571;SDS011;3827;49.928;8.548;2024-03-08T13:54:27;13.68;;;12.20;;
7571;SDS011;3827;49.928;8.548;2024-03-08T13:56:56;13.02;;;11.70;;
7571;SDS011;3827;49.928;8.548;2024-03-08T13:59:23;13.45;;;12.10;;
7571;SDS011;3827;49.928;8.548;2024-03-08T14:01:54;15.63;;;12.48;;
7571;SDS011;3827;49.928;8.548;2024-03-08T14:04:21;13.45;;;12.05;;
7571;SDS011;3827;49.928;8.548;2024-03-08T14:06:49;12.88;;;11.13;;
7571;SDS011;3827;49.928;8.548;2024-03-08T14:09:16;12.80;;;11.30;;
7571;SDS011;3827;49.928;8.548;2024-03-08T14:11:45;12.98;;;11.57;;
7571;SDS011;3827;49.928;8.548;2024-03-08T14:14:12;13.27;;;11.43;;
7571;SDS011;3827;49.928;8.548;2024-03-08T14:16:38;12.77;;;11.45;;
7571;SDS011;3827;49.928;8.548;2024-03-08T14:19:05;13.82;;;12.27;;
7571;SDS011;3827;49.928;8.548;2024-03-08T14:21:35;13.20;;;11.52;;
7571;SDS011;3827;49.928;8.548;2024-03-08T14:24:04;13.32;;;11.85;;
7571;SDS011;3827;49.928;8.548;2024-03-08T14:26:31;14.13;;;11.20;;
7571;SDS011;3827;49.928;8.548;2024-03-08T14:29:00;13.00;;;11.70;;
7571;SDS011;3827;49.928;8.548;2024-03-08T14:31:27;13.32;;;11.93;;
7571;SDS011;3827;49.928;8.548;2024-03-08T14:33:55;13.23;;;11.23;;
7571;SDS011;3827;49.928;8.548;2024-03-08T14:36:23;13.18;;;11.77;;
7571;SDS011;3827;49.928;8.548;2024-03-08T14:38:51;13.98;;;11.93;;
7571;SDS011;3827;49.928;8.548;2024-03-08T14:41:18;12.95;;;11.65;;
7571;SDS011;3827;49.928;8.548;2024-03-08T14:43:45;12.52;;;11.13;;
7571;SDS011;3827;49.928;8.548;2024-03-08T14:46:13;13.52;;;11.65;;
7571;SDS011;3827;49.928;8.548;2024-03-08T14:48:42;12.50;;;11.15;;
7571;SDS011;3827;49.928;8.548;2024-03-08T14:51:09;13.32;;;11.90;;
7571;SDS011;3827;49.928;8.548;2024-03-08T14:53:39;13.43;;;11.98;;